sensor_id;sensor_type;location;lat;lon;timestamp;temperature;humidity
2749;DHT22;1382;52.142;11.618;2023-04-24T00:02:15;18.50;47.60
2749;DHT22;1382;52.142;11.618;2023-04-24T00:04:43;18.60;47.90
2749;DHT22;1382;52.142;11.618;2023-04-24T00:07:10;18.40;47.60
2749;DHT22;1382;52.142;11.618;2023-04-24T00:09:37;18.40;47.90
2749;DHT22;1382;52.142;11.618;2023-04-24T00:12:04;18.40;48.00
2749;DHT22;1382;52.142;11.618;2023-04-24T00:14:31;18.50;48.30
2749;DHT22;1382;52.142;11.618;2023-04-24T00:16:58;18.40;48.00
2749;DHT22;1382;52.142;11.618;2023-04-24T00:19:25;18.40;48.20
2749;DHT22;1382;52.142;11.618;2023-04-24T00:21:53;18.40;48.10
2749;DHT22;1382;52.142;11.618;2023-04-24T00:24:20;18.40;49.20
2749;DHT22;1382;52.142;11.618;2023-04-24T00:26:47;18.40;48.80
2749;DHT22;1382;52.142;11.618;2023-04-24T00:29:14;18.30;48.60
2749;DHT22;1382;52.142;11.618;2023-04-24T00:31:40;18.30;48.50
2749;DHT22;1382;52.142;11.618;2023-04-24T00:34:07;18.30;48.30
2749;DHT22;1382;52.142;11.618;2023-04-24T00:36:34;18.30;48.20
2749;DHT22;1382;52.142;11.618;2023-04-24T00:39:02;18.30;48.50
2749;DHT22;1382;52.142;11.618;2023-04-24T00:41:29;18.30;48.30
2749;DHT22;1382;52.142;11.618;2023-04-24T00:43:56;18.30;48.90
2749;DHT22;1382;52.142;11.618;2023-04-24T00:46:23;18.40;49.00
2749;DHT22;1382;52.142;11.618;2023-04-24T00:48:50;18.30;48.80
2749;DHT22;1382;52.142;11.618;2023-04-24T00:51:17;18.30;49.00
2749;DHT22;1382;52.142;11.618;2023-04-24T00:53:44;18.40;49.70
2749;DHT22;1382;52.142;11.618;2023-04-24T00:56:13;18.20;49.40
2749;DHT22;1382;52.142;11.618;2023-04-24T00:58:40;18.20;48.90
2749;DHT22;1382;52.142;11.618;2023-04-24T01:01:07;18.20;49.20
2749;DHT22;1382;52.142;11.618;2023-04-24T01:03:34;18.20;49.10
2749;DHT22;1382;52.142;11.618;2023-04-24T01:06:03;18.20;48.80
2749;DHT22;1382;52.142;11.618;2023-04-24T01:08:30;18.20;48.80
2749;DHT22;1382;52.142;11.618;2023-04-24T01:10:58;18.10;49.10
2749;DHT22;1382;52.142;11.618;2023-04-24T01:13:26;18.10;50.10
2749;DHT22;1382;52.142;11.618;2023-04-24T01:15:53;18.10;49.40
2749;DHT22;1382;52.142;11.618;2023-04-24T01:18:20;18.10;49.50
2749;DHT22;1382;52.142;11.618;2023-04-24T01:20:48;18.10;49.50
2749;DHT22;1382;52.142;11.618;2023-04-24T01:23:18;18.10;49.40
2749;DHT22;1382;52.142;11.618;2023-04-24T01:25:45;18.00;49.30
2749;DHT22;1382;52.142;11.618;2023-04-24T01:28:12;18.00;49.30
2749;DHT22;1382;52.142;11.618;2023-04-24T01:30:39;18.00;49.30
2749;DHT22;1382;52.142;11.618;2023-04-24T01:33:06;18.00;49.00
2749;DHT22;1382;52.142;11.618;2023-04-24T01:35:33;18.20;49.10
2749;DHT22;1382;52.142;11.618;2023-04-24T01:38:00;18.10;49.30
2749;DHT22;1382;52.142;11.618;2023-04-24T01:40:28;18.00;49.10
2749;DHT22;1382;52.142;11.618;2023-04-24T01:42:55;18.00;48.90
2749;DHT22;1382;52.142;11.618;2023-04-24T01:45:22;18.00;49.10
2749;DHT22;1382;52.142;11.618;2023-04-24T01:47:49;18.00;49.20
2749;DHT22;1382;52.142;11.618;2023-04-24T01:50:17;18.00;48.90
2749;DHT22;1382;52.142;11.618;2023-04-24T01:52:44;18.00;48.80
2749;DHT22;1382;52.142;11.618;2023-04-24T01:55:10;18.00;48.80
2749;DHT22;1382;52.142;11.618;2023-04-24T01:57:39;18.00;48.90
2749;DHT22;1382;52.142;11.618;2023-04-24T02:00:07;18.00;49.30
2749;DHT22;1382;52.142;11.618;2023-04-24T02:02:34;18.00;49.00
2749;DHT22;1382;52.142;11.618;2023-04-24T02:05:01;18.00;48.80
2749;DHT22;1382;52.142;11.618;2023-04-24T02:07:27;18.00;48.60
2749;DHT22;1382;52.142;11.618;2023-04-24T02:09:54;18.00;48.70
2749;DHT22;1382;52.142;11.618;2023-04-24T02:12:21;17.90;48.30
2749;DHT22;1382;52.142;11.618;2023-04-24T02:14:49;17.90;48.50
2749;DHT22;1382;52.142;11.618;2023-04-24T02:17:16;17.90;48.30
2749;DHT22;1382;52.142;11.618;2023-04-24T02:19:42;17.90;48.20
2749;DHT22;1382;52.142;11.618;2023-04-24T02:22:09;17.90;48.30
2749;DHT22;1382;52.142;11.618;2023-04-24T02:24:36;17.90;48.00
2749;DHT22;1382;52.142;11.618;2023-04-24T02:27:03;17.90;48.40
2749;DHT22;1382;52.142;11.618;2023-04-24T02:29:30;17.80;48.00
2749;DHT22;1382;52.142;11.618;2023-04-24T02:31:58;17.80;48.00
2749;DHT22;1382;52.142;11.618;2023-04-24T02:34:25;17.80;48.20
2749;DHT22;1382;52.142;11.618;2023-04-24T02:36:51;17.80;48.30
2749;DHT22;1382;52.142;11.618;2023-04-24T02:39:18;17.80;48.20
2749;DHT22;1382;52.142;11.618;2023-04-24T02:41:45;17.70;48.40
2749;DHT22;1382;52.142;11.618;2023-04-24T02:44:12;17.70;48.60
2749;DHT22;1382;52.142;11.618;2023-04-24T02:46:38;17.70;48.50
2749;DHT22;1382;52.142;11.618;2023-04-24T02:49:07;17.60;48.60
2749;DHT22;1382;52.142;11.618;2023-04-24T02:51:33;17.60;48.20
2749;DHT22;1382;52.142;11.618;2023-04-24T02:54:00;17.50;48.10
2749;DHT22;1382;52.142;11.618;2023-04-24T02:56:27;17.50;48.00
2749;DHT22;1382;52.142;11.618;2023-04-24T02:58:54;17.50;48.00
2749;DHT22;1382;52.142;11.618;2023-04-24T03:01:20;17.50;47.90
2749;DHT22;1382;52.142;11.618;2023-04-24T03:03:47;17.50;47.90
2749;DHT22;1382;52.142;11.618;2023-04-24T03:06:15;17.60;47.70
2749;DHT22;1382;52.142;11.618;2023-04-24T03:08:42;17.40;47.40
2749;DHT22;1382;52.142;11.618;2023-04-24T03:11:09;17.40;47.90
2749;DHT22;1382;52.142;11.618;2023-04-24T03:13:35;17.30;47.90
2749;DHT22;1382;52.142;11.618;2023-04-24T03:16:02;17.30;47.80
2749;DHT22;1382;52.142;11.618;2023-04-24T03:18:29;17.20;47.50
2749;DHT22;1382;52.142;11.618;2023-04-24T03:20:56;17.30;47.60
2749;DHT22;1382;52.142;11.618;2023-04-24T03:23:24;17.20;47.60
2749;DHT22;1382;52.142;11.618;2023-04-24T03:25:51;17.20;47.60
2749;DHT22;1382;52.142;11.618;2023-04-24T03:28:17;17.20;47.60
2749;DHT22;1382;52.142;11.618;2023-04-24T03:30:44;17.10;47.90
2749;DHT22;1382;52.142;11.618;2023-04-24T03:33:11;17.10;48.20
2749;DHT22;1382;52.142;11.618;2023-04-24T03:35:37;17.10;48.20
2749;DHT22;1382;52.142;11.618;2023-04-24T03:38:04;17.00;48.30
2749;DHT22;1382;52.142;11.618;2023-04-24T03:40:32;17.00;48.00
2749;DHT22;1382;52.142;11.618;2023-04-24T03:42:59;17.00;48.20
2749;DHT22;1382;52.142;11.618;2023-04-24T03:45:26;16.90;48.00
2749;DHT22;1382;52.142;11.618;2023-04-24T03:47:53;16.90;47.90
2749;DHT22;1382;52.142;11.618;2023-04-24T03:50:19;16.90;48.30
2749;DHT22;1382;52.142;11.618;2023-04-24T03:52:46;16.90;48.20
2749;DHT22;1382;52.142;11.618;2023-04-24T03:55:13;16.80;48.30
2749;DHT22;1382;52.142;11.618;2023-04-24T03:57:41;16.80;48.20
2749;DHT22;1382;52.142;11.618;2023-04-24T04:00:09;16.80;48.50
2749;DHT22;1382;52.142;11.618;2023-04-24T04:02:36;16.70;48.50
2749;DHT22;1382;52.142;11.618;2023-04-24T04:05:03;16.70;48.40
2749;DHT22;1382;52.142;11.618;2023-04-24T04:07:30;16.70;48.40
2749;DHT22;1382;52.142;11.618;2023-04-24T04:09:56;16.60;48.40
2749;DHT22;1382;52.142;11.618;2023-04-24T04:12:23;16.60;48.40
2749;DHT22;1382;52.142;11.618;2023-04-24T04:14:51;16.60;48.50
2749;DHT22;1382;52.142;11.618;2023-04-24T04:17:18;16.60;48.50
2749;DHT22;1382;52.142;11.618;2023-04-24T04:19:44;16.50;48.60
2749;DHT22;1382;52.142;11.618;2023-04-24T04:22:11;16.50;48.70
2749;DHT22;1382;52.142;11.618;2023-04-24T04:24:38;16.50;48.50
2749;DHT22;1382;52.142;11.618;2023-04-24T04:27:04;16.50;48.60
2749;DHT22;1382;52.142;11.618;2023-04-24T04:29:31;16.40;48.50
2749;DHT22;1382;52.142;11.618;2023-04-24T04:31:59;16.40;48.40
2749;DHT22;1382;52.142;11.618;2023-04-24T04:34:26;16.40;48.40
2749;DHT22;1382;52.142;11.618;2023-04-24T04:36:53;16.40;48.40
2749;DHT22;1382;52.142;11.618;2023-04-24T04:39:19;16.30;48.50
2749;DHT22;1382;52.142;11.618;2023-04-24T04:41:46;16.30;48.50
2749;DHT22;1382;52.142;11.618;2023-04-24T04:44:13;16.30;48.40
2749;DHT22;1382;52.142;11.618;2023-04-24T04:46:39;16.30;48.20
2749;DHT22;1382;52.142;11.618;2023-04-24T04:49:07;16.30;48.20
2749;DHT22;1382;52.142;11.618;2023-04-24T04:51:34;16.20;48.30
2749;DHT22;1382;52.142;11.618;2023-04-24T04:54:01;16.20;48.30
2749;DHT22;1382;52.142;11.618;2023-04-24T04:56:28;16.20;48.10
2749;DHT22;1382;52.142;11.618;2023-04-24T04:58:54;16.20;48.30
2749;DHT22;1382;52.142;11.618;2023-04-24T05:01:21;16.20;48.50
2749;DHT22;1382;52.142;11.618;2023-04-24T05:03:48;16.20;48.60
2749;DHT22;1382;52.142;11.618;2023-04-24T05:06:16;16.20;48.70
2749;DHT22;1382;52.142;11.618;2023-04-24T05:08:43;16.30;48.80
2749;DHT22;1382;52.142;11.618;2023-04-24T05:11:10;16.20;48.70
2749;DHT22;1382;52.142;11.618;2023-04-24T05:13:36;16.30;48.70
2749;DHT22;1382;52.142;11.618;2023-04-24T05:16:06;16.30;48.70
2749;DHT22;1382;52.142;11.618;2023-04-24T05:18:33;16.30;48.30
2749;DHT22;1382;52.142;11.618;2023-04-24T05:21:00;16.30;48.50
2749;DHT22;1382;52.142;11.618;2023-04-24T05:23:28;16.30;49.00
2749;DHT22;1382;52.142;11.618;2023-04-24T05:25:55;16.40;48.90
2749;DHT22;1382;52.142;11.618;2023-04-24T05:28:22;16.40;49.10
2749;DHT22;1382;52.142;11.618;2023-04-24T05:30:49;16.70;49.30
2749;DHT22;1382;52.142;11.618;2023-04-24T05:33:16;16.50;49.00
2749;DHT22;1382;52.142;11.618;2023-04-24T05:35:42;16.60;49.00
2749;DHT22;1382;52.142;11.618;2023-04-24T05:38:09;16.60;48.80
2749;DHT22;1382;52.142;11.618;2023-04-24T05:40:37;16.70;49.00
2749;DHT22;1382;52.142;11.618;2023-04-24T05:43:04;16.70;49.00
2749;DHT22;1382;52.142;11.618;2023-04-24T05:45:30;16.80;49.10
2749;DHT22;1382;52.142;11.618;2023-04-24T05:47:57;16.90;49.20
2749;DHT22;1382;52.142;11.618;2023-04-24T05:50:24;17.00;49.10
2749;DHT22;1382;52.142;11.618;2023-04-24T05:52:50;17.00;48.70
2749;DHT22;1382;52.142;11.618;2023-04-24T05:55:17;17.10;49.10
2749;DHT22;1382;52.142;11.618;2023-04-24T05:57:45;17.10;48.70
2749;DHT22;1382;52.142;11.618;2023-04-24T06:00:13;17.20;48.70
2749;DHT22;1382;52.142;11.618;2023-04-24T06:02:40;17.20;48.40
2749;DHT22;1382;52.142;11.618;2023-04-24T06:05:07;17.30;48.70
2749;DHT22;1382;52.142;11.618;2023-04-24T06:07:34;17.30;49.00
2749;DHT22;1382;52.142;11.618;2023-04-24T06:10:01;17.40;48.70
2749;DHT22;1382;52.142;11.618;2023-04-24T06:12:28;17.40;49.00
2749;DHT22;1382;52.142;11.618;2023-04-24T06:14:56;17.50;48.60
2749;DHT22;1382;52.142;11.618;2023-04-24T06:17:23;17.60;48.50
2749;DHT22;1382;52.142;11.618;2023-04-24T06:19:50;17.60;48.40
2749;DHT22;1382;52.142;11.618;2023-04-24T06:22:17;17.80;48.80
2749;DHT22;1382;52.142;11.618;2023-04-24T06:24:43;17.70;48.60
2749;DHT22;1382;52.142;11.618;2023-04-24T06:27:10;17.80;48.70
2749;DHT22;1382;52.142;11.618;2023-04-24T06:29:37;17.80;48.80
2749;DHT22;1382;52.142;11.618;2023-04-24T06:32:06;17.90;48.20
2749;DHT22;1382;52.142;11.618;2023-04-24T06:34:32;17.90;48.40
2749;DHT22;1382;52.142;11.618;2023-04-24T06:36:59;18.00;48.80
2749;DHT22;1382;52.142;11.618;2023-04-24T06:39:26;18.00;48.70
2749;DHT22;1382;52.142;11.618;2023-04-24T06:41:53;18.10;48.40
2749;DHT22;1382;52.142;11.618;2023-04-24T06:44:20;18.20;48.60
2749;DHT22;1382;52.142;11.618;2023-04-24T06:46:47;18.20;48.60
2749;DHT22;1382;52.142;11.618;2023-04-24T06:49:15;18.20;48.50
2749;DHT22;1382;52.142;11.618;2023-04-24T06:51:42;18.30;48.60
2749;DHT22;1382;52.142;11.618;2023-04-24T06:54:08;18.40;48.90
2749;DHT22;1382;52.142;11.618;2023-04-24T06:56:35;18.50;49.30
2749;DHT22;1382;52.142;11.618;2023-04-24T06:59:02;18.50;49.80
2749;DHT22;1382;52.142;11.618;2023-04-24T07:01:29;18.70;49.30
2749;DHT22;1382;52.142;11.618;2023-04-24T07:03:55;18.80;49.30
2749;DHT22;1382;52.142;11.618;2023-04-24T07:06:24;19.10;49.60
2749;DHT22;1382;52.142;11.618;2023-04-24T07:08:51;19.20;49.50
2749;DHT22;1382;52.142;11.618;2023-04-24T07:11:17;19.20;49.00
2749;DHT22;1382;52.142;11.618;2023-04-24T07:13:44;19.40;49.00
2749;DHT22;1382;52.142;11.618;2023-04-24T07:16:11;19.50;48.90
2749;DHT22;1382;52.142;11.618;2023-04-24T07:18:38;19.70;48.70
2749;DHT22;1382;52.142;11.618;2023-04-24T07:21:05;19.90;48.40
2749;DHT22;1382;52.142;11.618;2023-04-24T07:23:33;20.00;47.90
2749;DHT22;1382;52.142;11.618;2023-04-24T07:26:00;20.10;48.20
2749;DHT22;1382;52.142;11.618;2023-04-24T07:28:26;20.20;47.80
2749;DHT22;1382;52.142;11.618;2023-04-24T07:30:53;20.30;47.10
2749;DHT22;1382;52.142;11.618;2023-04-24T07:33:20;20.30;46.60
2749;DHT22;1382;52.142;11.618;2023-04-24T07:35:47;20.30;46.60
2749;DHT22;1382;52.142;11.618;2023-04-24T07:38:13;20.40;46.30
2749;DHT22;1382;52.142;11.618;2023-04-24T07:40:41;20.50;46.40
2749;DHT22;1382;52.142;11.618;2023-04-24T07:43:08;20.40;46.20
2749;DHT22;1382;52.142;11.618;2023-04-24T07:45:35;20.50;46.30
2749;DHT22;1382;52.142;11.618;2023-04-24T07:48:02;20.50;46.10
2749;DHT22;1382;52.142;11.618;2023-04-24T07:50:29;20.50;46.00
2749;DHT22;1382;52.142;11.618;2023-04-24T07:52:56;20.70;46.10
2749;DHT22;1382;52.142;11.618;2023-04-24T07:55:23;20.50;46.00
2749;DHT22;1382;52.142;11.618;2023-04-24T07:57:55;20.50;46.30
2749;DHT22;1382;52.142;11.618;2023-04-24T08:00:21;20.50;46.00
2749;DHT22;1382;52.142;11.618;2023-04-24T08:02:48;20.40;46.00
2749;DHT22;1382;52.142;11.618;2023-04-24T08:05:16;20.40;46.20
2749;DHT22;1382;52.142;11.618;2023-04-24T08:07:43;20.50;46.20
2749;DHT22;1382;52.142;11.618;2023-04-24T08:10:10;20.50;46.10
2749;DHT22;1382;52.142;11.618;2023-04-24T08:12:37;20.40;46.00
2749;DHT22;1382;52.142;11.618;2023-04-24T08:15:06;20.40;46.00
2749;DHT22;1382;52.142;11.618;2023-04-24T08:17:34;20.40;46.10
2749;DHT22;1382;52.142;11.618;2023-04-24T08:20:01;20.50;46.30
2749;DHT22;1382;52.142;11.618;2023-04-24T08:22:28;20.50;46.30
2749;DHT22;1382;52.142;11.618;2023-04-24T08:24:55;20.60;46.20
2749;DHT22;1382;52.142;11.618;2023-04-24T08:27:22;20.70;45.90
2749;DHT22;1382;52.142;11.618;2023-04-24T08:29:49;20.70;45.90
2749;DHT22;1382;52.142;11.618;2023-04-24T08:32:17;20.80;45.70
2749;DHT22;1382;52.142;11.618;2023-04-24T08:34:44;20.70;45.40
2749;DHT22;1382;52.142;11.618;2023-04-24T08:37:12;20.80;45.60
2749;DHT22;1382;52.142;11.618;2023-04-24T08:39:39;20.80;45.50
2749;DHT22;1382;52.142;11.618;2023-04-24T08:42:06;20.80;45.40
2749;DHT22;1382;52.142;11.618;2023-04-24T08:44:32;20.90;45.60
2749;DHT22;1382;52.142;11.618;2023-04-24T08:47:00;20.90;45.50
2749;DHT22;1382;52.142;11.618;2023-04-24T08:49:29;20.90;45.40
2749;DHT22;1382;52.142;11.618;2023-04-24T08:51:56;20.90;45.30
2749;DHT22;1382;52.142;11.618;2023-04-24T08:54:23;20.90;45.60
2749;DHT22;1382;52.142;11.618;2023-04-24T08:56:53;21.00;45.10
2749;DHT22;1382;52.142;11.618;2023-04-24T08:59:24;21.10;44.50
2749;DHT22;1382;52.142;11.618;2023-04-24T09:01:51;21.10;45.10
2749;DHT22;1382;52.142;11.618;2023-04-24T09:04:20;21.20;45.40
2749;DHT22;1382;52.142;11.618;2023-04-24T09:06:49;21.30;45.30
2749;DHT22;1382;52.142;11.618;2023-04-24T09:09:17;21.30;44.60
2749;DHT22;1382;52.142;11.618;2023-04-24T09:11:44;21.40;43.70
2749;DHT22;1382;52.142;11.618;2023-04-24T09:14:11;21.40;43.90
2749;DHT22;1382;52.142;11.618;2023-04-24T09:16:38;21.50;44.60
2749;DHT22;1382;52.142;11.618;2023-04-24T09:19:04;21.50;43.00
2749;DHT22;1382;52.142;11.618;2023-04-24T09:21:32;21.60;43.60
2749;DHT22;1382;52.142;11.618;2023-04-24T09:24:02;21.70;43.80
2749;DHT22;1382;52.142;11.618;2023-04-24T09:26:30;21.70;44.00
2749;DHT22;1382;52.142;11.618;2023-04-24T09:28:57;21.90;43.60
2749;DHT22;1382;52.142;11.618;2023-04-24T09:31:24;21.90;43.20
2749;DHT22;1382;52.142;11.618;2023-04-24T09:33:54;22.00;43.50
2749;DHT22;1382;52.142;11.618;2023-04-24T09:36:27;22.00;42.20
2749;DHT22;1382;52.142;11.618;2023-04-24T09:38:57;22.00;41.30
2749;DHT22;1382;52.142;11.618;2023-04-24T09:41:26;21.90;40.50
2749;DHT22;1382;52.142;11.618;2023-04-24T09:43:53;21.70;40.10
2749;DHT22;1382;52.142;11.618;2023-04-24T09:46:20;21.60;39.90
2749;DHT22;1382;52.142;11.618;2023-04-24T09:48:47;21.50;40.60
2749;DHT22;1382;52.142;11.618;2023-04-24T09:51:14;21.40;42.80
2749;DHT22;1382;52.142;11.618;2023-04-24T09:53:45;21.40;41.60
2749;DHT22;1382;52.142;11.618;2023-04-24T09:56:12;21.30;41.00
2749;DHT22;1382;52.142;11.618;2023-04-24T09:58:40;21.20;41.70
2749;DHT22;1382;52.142;11.618;2023-04-24T10:01:07;21.10;42.20
2749;DHT22;1382;52.142;11.618;2023-04-24T10:03:34;21.10;42.40
2749;DHT22;1382;52.142;11.618;2023-04-24T10:06:02;21.00;42.40
2749;DHT22;1382;52.142;11.618;2023-04-24T10:08:33;21.00;43.20
2749;DHT22;1382;52.142;11.618;2023-04-24T10:11:01;21.00;43.20
2749;DHT22;1382;52.142;11.618;2023-04-24T10:13:28;21.00;43.20
2749;DHT22;1382;52.142;11.618;2023-04-24T10:15:56;20.90;43.20
2749;DHT22;1382;52.142;11.618;2023-04-24T10:18:25;20.90;44.30
2749;DHT22;1382;52.142;11.618;2023-04-24T10:20:53;21.00;43.90
2749;DHT22;1382;52.142;11.618;2023-04-24T10:23:20;20.90;43.80
2749;DHT22;1382;52.142;11.618;2023-04-24T10:25:48;20.90;43.70
2749;DHT22;1382;52.142;11.618;2023-04-24T10:28:20;21.00;44.20
2749;DHT22;1382;52.142;11.618;2023-04-24T10:30:47;21.00;44.50
2749;DHT22;1382;52.142;11.618;2023-04-24T10:33:22;21.10;44.60
2749;DHT22;1382;52.142;11.618;2023-04-24T10:35:51;21.20;42.50
2749;DHT22;1382;52.142;11.618;2023-04-24T10:38:22;21.10;42.80
2749;DHT22;1382;52.142;11.618;2023-04-24T10:40:49;21.20;42.80
2749;DHT22;1382;52.142;11.618;2023-04-24T10:43:17;21.20;42.70
2749;DHT22;1382;52.142;11.618;2023-04-24T10:46:02;21.40;42.60
2749;DHT22;1382;52.142;11.618;2023-04-24T10:48:34;21.40;42.70
2749;DHT22;1382;52.142;11.618;2023-04-24T10:51:01;21.40;42.40
2749;DHT22;1382;52.142;11.618;2023-04-24T10:53:29;21.50;42.60
2749;DHT22;1382;52.142;11.618;2023-04-24T10:56:02;21.50;42.50
2749;DHT22;1382;52.142;11.618;2023-04-24T10:58:36;21.60;41.60
2749;DHT22;1382;52.142;11.618;2023-04-24T11:01:04;21.70;41.20
2749;DHT22;1382;52.142;11.618;2023-04-24T11:03:32;21.60;38.30
2749;DHT22;1382;52.142;11.618;2023-04-24T11:06:02;21.70;38.40
2749;DHT22;1382;52.142;11.618;2023-04-24T11:08:31;22.00;38.80
2749;DHT22;1382;52.142;11.618;2023-04-24T11:11:01;21.90;39.00
2749;DHT22;1382;52.142;11.618;2023-04-24T11:16:42;22.00;35.80
2749;DHT22;1382;52.142;11.618;2023-04-24T11:19:11;21.90;37.40
2749;DHT22;1382;52.142;11.618;2023-04-24T11:21:49;21.90;36.80
2749;DHT22;1382;52.142;11.618;2023-04-24T11:24:28;22.00;37.00
2749;DHT22;1382;52.142;11.618;2023-04-24T11:26:56;22.00;38.10
2749;DHT22;1382;52.142;11.618;2023-04-24T11:29:38;22.00;38.70
2749;DHT22;1382;52.142;11.618;2023-04-24T11:32:15;22.30;39.20
2749;DHT22;1382;52.142;11.618;2023-04-24T11:34:45;22.40;38.90
2749;DHT22;1382;52.142;11.618;2023-04-24T11:37:14;22.30;37.80
2749;DHT22;1382;52.142;11.618;2023-04-24T11:39:40;22.40;36.40
2749;DHT22;1382;52.142;11.618;2023-04-24T11:42:07;22.40;34.90
2749;DHT22;1382;52.142;11.618;2023-04-24T11:44:36;22.40;36.40
2749;DHT22;1382;52.142;11.618;2023-04-24T11:47:03;22.40;37.30
2749;DHT22;1382;52.142;11.618;2023-04-24T11:49:29;22.50;39.70
2749;DHT22;1382;52.142;11.618;2023-04-24T11:51:56;22.50;38.30
2749;DHT22;1382;52.142;11.618;2023-04-24T11:54:28;22.50;36.30
2749;DHT22;1382;52.142;11.618;2023-04-24T11:56:56;22.50;36.80
2749;DHT22;1382;52.142;11.618;2023-04-24T11:59:23;22.50;35.30
2749;DHT22;1382;52.142;11.618;2023-04-24T12:01:49;22.50;36.50
2749;DHT22;1382;52.142;11.618;2023-04-24T12:04:17;22.40;35.80
2749;DHT22;1382;52.142;11.618;2023-04-24T12:07:00;22.30;36.00
2749;DHT22;1382;52.142;11.618;2023-04-24T12:09:28;22.30;36.80
2749;DHT22;1382;52.142;11.618;2023-04-24T12:11:55;22.20;36.60
2749;DHT22;1382;52.142;11.618;2023-04-24T12:14:22;22.10;35.70
2749;DHT22;1382;52.142;11.618;2023-04-24T12:16:50;21.90;35.60
2749;DHT22;1382;52.142;11.618;2023-04-24T12:19:18;21.80;35.90
2749;DHT22;1382;52.142;11.618;2023-04-24T12:21:59;21.80;37.40
2749;DHT22;1382;52.142;11.618;2023-04-24T12:24:25;21.80;37.50
2749;DHT22;1382;52.142;11.618;2023-04-24T12:26:54;21.80;36.60
2749;DHT22;1382;52.142;11.618;2023-04-24T12:29:20;21.70;36.50
2749;DHT22;1382;52.142;11.618;2023-04-24T12:31:47;21.70;36.40
2749;DHT22;1382;52.142;11.618;2023-04-24T12:34:18;21.70;37.50
2749;DHT22;1382;52.142;11.618;2023-04-24T12:36:45;21.70;39.10
2749;DHT22;1382;52.142;11.618;2023-04-24T12:39:14;22.00;38.00
2749;DHT22;1382;52.142;11.618;2023-04-24T12:41:50;21.90;37.70
2749;DHT22;1382;52.142;11.618;2023-04-24T12:44:28;22.00;37.40
2749;DHT22;1382;52.142;11.618;2023-04-24T12:46:55;22.10;39.10
2749;DHT22;1382;52.142;11.618;2023-04-24T12:49:22;22.20;36.70
2749;DHT22;1382;52.142;11.618;2023-04-24T12:51:48;22.30;36.10
2749;DHT22;1382;52.142;11.618;2023-04-24T12:54:15;22.40;37.70
2749;DHT22;1382;52.142;11.618;2023-04-24T12:56:42;22.50;35.50
2749;DHT22;1382;52.142;11.618;2023-04-24T12:59:09;22.50;36.60
2749;DHT22;1382;52.142;11.618;2023-04-24T13:01:37;22.50;33.90
2749;DHT22;1382;52.142;11.618;2023-04-24T13:04:04;22.50;37.00
2749;DHT22;1382;52.142;11.618;2023-04-24T13:06:31;22.60;39.00
2749;DHT22;1382;52.142;11.618;2023-04-24T13:08:57;22.70;38.30
2749;DHT22;1382;52.142;11.618;2023-04-24T13:11:24;22.80;38.20
2749;DHT22;1382;52.142;11.618;2023-04-24T13:13:51;22.80;38.10
2749;DHT22;1382;52.142;11.618;2023-04-24T13:16:20;22.90;35.90
2749;DHT22;1382;52.142;11.618;2023-04-24T13:18:49;22.90;36.40
2749;DHT22;1382;52.142;11.618;2023-04-24T13:21:15;23.00;37.40
2749;DHT22;1382;52.142;11.618;2023-04-24T13:23:42;23.00;35.10
2749;DHT22;1382;52.142;11.618;2023-04-24T13:26:09;23.00;34.30
2749;DHT22;1382;52.142;11.618;2023-04-24T13:28:36;23.00;37.20
2749;DHT22;1382;52.142;11.618;2023-04-24T13:31:03;23.00;35.30
2749;DHT22;1382;52.142;11.618;2023-04-24T13:33:29;23.10;35.90
2749;DHT22;1382;52.142;11.618;2023-04-24T13:35:57;23.00;35.00
2749;DHT22;1382;52.142;11.618;2023-04-24T13:38:24;23.00;35.50
2749;DHT22;1382;52.142;11.618;2023-04-24T13:40:51;23.00;35.30
2749;DHT22;1382;52.142;11.618;2023-04-24T13:43:18;23.00;36.30
2749;DHT22;1382;52.142;11.618;2023-04-24T13:45:44;23.00;35.90
2749;DHT22;1382;52.142;11.618;2023-04-24T13:48:11;23.00;36.50
2749;DHT22;1382;52.142;11.618;2023-04-24T13:50:38;23.00;37.10
2749;DHT22;1382;52.142;11.618;2023-04-24T13:53:06;23.00;36.90
2749;DHT22;1382;52.142;11.618;2023-04-24T13:55:33;22.90;37.10
2749;DHT22;1382;52.142;11.618;2023-04-24T13:57:59;22.90;35.00
2749;DHT22;1382;52.142;11.618;2023-04-24T14:00:26;22.80;36.80
2749;DHT22;1382;52.142;11.618;2023-04-24T14:02:53;22.70;35.60
2749;DHT22;1382;52.142;11.618;2023-04-24T14:05:21;22.60;35.10
2749;DHT22;1382;52.142;11.618;2023-04-24T14:07:47;22.40;36.70
2749;DHT22;1382;52.142;11.618;2023-04-24T14:10:15;22.30;37.70
2749;DHT22;1382;52.142;11.618;2023-04-24T14:12:42;22.30;38.20
2749;DHT22;1382;52.142;11.618;2023-04-24T14:15:09;22.20;39.10
2749;DHT22;1382;52.142;11.618;2023-04-24T14:17:36;22.20;38.90
2749;DHT22;1382;52.142;11.618;2023-04-24T14:20:04;22.10;38.40
2749;DHT22;1382;52.142;11.618;2023-04-24T14:22:31;22.00;38.50
2749;DHT22;1382;52.142;11.618;2023-04-24T14:24:58;21.90;38.30
2749;DHT22;1382;52.142;11.618;2023-04-24T14:27:26;21.80;38.70
2749;DHT22;1382;52.142;11.618;2023-04-24T14:29:52;21.70;39.00
2749;DHT22;1382;52.142;11.618;2023-04-24T14:32:19;21.70;38.60
2749;DHT22;1382;52.142;11.618;2023-04-24T14:34:46;21.60;39.50
2749;DHT22;1382;52.142;11.618;2023-04-24T14:37:12;21.60;39.00
2749;DHT22;1382;52.142;11.618;2023-04-24T14:39:39;21.50;38.30
2749;DHT22;1382;52.142;11.618;2023-04-24T14:42:06;21.50;38.50
2749;DHT22;1382;52.142;11.618;2023-04-24T14:44:34;21.40;37.90
2749;DHT22;1382;52.142;11.618;2023-04-24T14:47:01;21.20;37.70
2749;DHT22;1382;52.142;11.618;2023-04-24T14:49:27;20.90;37.70
2749;DHT22;1382;52.142;11.618;2023-04-24T14:51:54;20.70;39.20
2749;DHT22;1382;52.142;11.618;2023-04-24T14:54:21;20.60;38.70
2749;DHT22;1382;52.142;11.618;2023-04-24T14:56:48;20.50;39.40
2749;DHT22;1382;52.142;11.618;2023-04-24T14:59:15;20.60;38.10
2749;DHT22;1382;52.142;11.618;2023-04-24T15:01:43;20.30;38.60
2749;DHT22;1382;52.142;11.618;2023-04-24T15:04:09;20.20;40.10
2749;DHT22;1382;52.142;11.618;2023-04-24T15:06:36;20.30;40.60
2749;DHT22;1382;52.142;11.618;2023-04-24T15:09:03;20.30;40.30
2749;DHT22;1382;52.142;11.618;2023-04-24T15:11:30;20.20;38.50
2749;DHT22;1382;52.142;11.618;2023-04-24T15:13:56;20.20;39.50
2749;DHT22;1382;52.142;11.618;2023-04-24T15:16:23;20.00;39.80
2749;DHT22;1382;52.142;11.618;2023-04-24T15:18:52;20.00;40.10
2749;DHT22;1382;52.142;11.618;2023-04-24T15:21:18;20.00;39.10
2749;DHT22;1382;52.142;11.618;2023-04-24T15:23:45;19.90;39.00
2749;DHT22;1382;52.142;11.618;2023-04-24T15:26:12;20.00;38.80
2749;DHT22;1382;52.142;11.618;2023-04-24T15:28:39;19.70;38.80
2749;DHT22;1382;52.142;11.618;2023-04-24T15:31:06;19.60;38.40
2749;DHT22;1382;52.142;11.618;2023-04-24T15:33:32;19.40;39.50
2749;DHT22;1382;52.142;11.618;2023-04-24T15:36:00;19.40;40.00
2749;DHT22;1382;52.142;11.618;2023-04-24T15:38:27;19.30;40.40
2749;DHT22;1382;52.142;11.618;2023-04-24T15:40:54;19.20;39.70
2749;DHT22;1382;52.142;11.618;2023-04-24T15:43:20;19.20;40.10
2749;DHT22;1382;52.142;11.618;2023-04-24T15:45:49;19.10;39.60
2749;DHT22;1382;52.142;11.618;2023-04-24T15:48:16;19.00;40.50
2749;DHT22;1382;52.142;11.618;2023-04-24T15:50:43;18.90;40.70